Time;durP1;ratioP1;P1;durP2;ratioP2;P2;SDS_P1;SDS_P2;PMS_P1;PMS_P2;Temp;Humidity;BMP_temperature;BMP_pressure;BME280_temperature;BME280_humidity;BME280_pressure;Samples;Min_cycle;Max_cycle;Signal;HPM_P1;HPM_P2
2023/04/23 00:01:43;;;;;;;11.02;9.05;;;;;;;19.14;45.60;100680.59;4982471;28;20372;-71
2023/04/23 00:04:09;;;;;;;11.13;9.05;;;;;;;19.14;45.66;100680.59;4998443;28;20080;-70
2023/04/23 00:06:35;;;;;;;10.90;9.05;;;;;;;19.15;45.44;100677.00;4996715;28;20053;-71
2023/04/23 00:09:02;;;;;;;11.35;8.32;;;;;;;19.13;45.46;100681.56;4983950;28;20418;-72
2023/04/23 00:11:28;;;;;;;11.68;9.38;;;;;;;19.12;45.69;100668.47;4983112;28;20070;-70
2023/04/23 00:13:53;;;;;;;10.75;8.80;;;;;;;19.13;45.53;100668.34;5001618;28;20504;-71
2023/04/23 00:16:19;;;;;;;10.52;8.80;;;;;;;19.12;45.46;100665.84;4991253;28;20141;-72
2023/04/23 00:18:45;;;;;;;10.40;8.27;;;;;;;19.10;45.59;100665.16;4985508;28;20044;-70
2023/04/23 00:21:11;;;;;;;10.63;8.93;;;;;;;19.12;45.63;100669.34;4982092;28;20034;-70
2023/04/23 00:23:37;;;;;;;10.45;8.55;;;;;;;19.09;45.49;100666.97;4992839;28;20037;-71
2023/04/23 00:26:03;;;;;;;10.57;8.18;;;;;;;19.09;45.36;100669.59;4987980;28;20058;-70
2023/04/23 00:28:28;;;;;;;9.43;7.68;;;;;;;19.08;45.60;100667.09;4984020;28;20437;-69
2023/04/23 00:30:53;;;;;;;11.60;8.32;;;;;;;19.07;45.43;100665.41;4999017;28;20049;-72
2023/04/23 00:33:19;;;;;;;10.05;8.18;;;;;;;19.07;45.49;100666.25;4989976;28;20467;-70
2023/04/23 00:35:44;;;;;;;9.57;7.35;;;;;;;19.07;45.33;100665.41;4982853;28;20034;-73
2023/04/23 00:38:10;;;;;;;9.15;7.97;;;;;;;19.06;45.45;100663.72;4997315;28;20041;-71
2023/04/23 00:40:35;;;;;;;10.38;7.97;;;;;;;19.04;45.37;100661.22;4988755;28;20033;-71
2023/04/23 00:43:01;;;;;;;10.00;7.95;;;;;;;19.03;45.54;100657.75;4985813;28;20045;-73
2023/04/23 00:45:26;;;;;;;9.15;7.38;;;;;;;19.04;45.42;100655.94;4985408;28;20034;-73
2023/04/23 00:47:52;;;;;;;9.43;7.50;;;;;;;19.03;45.24;100649.00;5001118;28;20534;-70
2023/04/23 00:50:18;;;;;;;8.63;7.05;;;;;;;19.03;45.01;100643.72;4982846;28;20387;-72
2023/04/23 00:52:43;;;;;;;9.00;7.07;;;;;;;19.01;45.38;100635.94;4988574;28;20861;-72
2023/04/23 00:55:08;;;;;;;9.52;7.45;;;;;;;18.99;45.26;100637.03;4981550;28;20051;-72
2023/04/23 00:57:36;;;;;;;7.85;6.72;;;;;;;19.00;45.07;100636.91;4989202;28;20041;-70
2023/04/23 01:00:04;;;;;;;8.50;7.28;;;;;;;19.02;45.29;100636.75;4981534;28;20034;-70
2023/04/23 01:02:30;;;;;;;8.70;7.15;;;;;;;18.99;45.31;100627.31;4998287;28;21331;-71
2023/04/23 01:04:57;;;;;;;8.77;6.90;;;;;;;18.99;45.28;100629.09;4981651;28;20034;-71
2023/04/23 01:07:23;;;;;;;8.90;7.25;;;;;;;18.99;45.45;100622.03;4990029;28;20034;-71
2023/04/23 01:09:49;;;;;;;9.35;6.95;;;;;;;18.96;45.31;100619.66;4996289;28;20367;-71
2023/04/23 01:12:15;;;;;;;9.15;7.30;;;;;;;18.97;45.36;100613.41;5000426;28;20065;-72
2023/04/23 01:14:42;;;;;;;8.05;6.85;;;;;;;18.95;45.29;100615.34;4997161;28;20054;-72
2023/04/23 01:17:08;;;;;;;8.98;7.35;;;;;;;18.98;45.17;100619.53;4987076;28;20065;-71
2023/04/23 01:19:33;;;;;;;9.32;6.80;;;;;;;18.96;45.35;100619.66;4993533;28;20078;-71
2023/04/23 01:22:00;;;;;;;7.93;6.75;;;;;;;18.95;45.38;100612.72;4997918;28;20034;-72
2023/04/23 01:24:27;;;;;;;9.23;6.57;;;;;;;18.94;45.32;100613.66;4983344;28;20045;-71
2023/04/23 01:26:53;;;;;;;8.35;6.70;;;;;;;18.96;45.30;100610.91;4997306;28;20538;-71
2023/04/23 01:29:19;;;;;;;10.55;7.18;;;;;;;18.95;45.27;100617.16;4987346;28;20030;-69
2023/04/23 01:31:45;;;;;;;8.15;6.20;;;;;;;18.95;45.17;100612.72;4994489;28;20976;-71
2023/04/23 01:34:11;;;;;;;8.20;6.68;;;;;;;18.94;45.32;100610.19;4990168;28;20034;-73
2023/04/23 01:36:37;;;;;;;8.73;6.25;;;;;;;18.93;45.10;100614.66;5000762;28;20036;-72
2023/04/23 01:39:02;;;;;;;8.07;6.40;;;;;;;18.94;45.23;100604.91;4992622;28;20038;-71
2023/04/23 01:41:28;;;;;;;8.63;6.40;;;;;;;18.92;45.32;100609.50;4992665;28;20033;-69
2023/04/23 01:43:54;;;;;;;8.32;6.13;;;;;;;18.92;45.41;100610.34;4993023;28;20030;-70
2023/04/23 01:46:20;;;;;;;7.88;6.30;;;;;;;18.91;45.43;100599.91;4990424;28;20034;-70
2023/04/23 01:48:45;;;;;;;7.43;6.10;;;;;;;18.90;45.26;100604.38;4993933;28;20041;-71
2023/04/23 01:51:11;;;;;;;8.13;6.10;;;;;;;18.91;45.11;100610.47;5003124;28;20084;-72
2023/04/23 01:53:36;;;;;;;7.97;6.50;;;;;;;18.89;45.20;100604.50;4992027;28;20030;-72
2023/04/23 01:56:02;;;;;;;7.38;6.05;;;;;;;18.92;45.27;100614.78;4972617;28;20061;-72
2023/04/23 01:58:27;;;;;;;8.63;6.40;;;;;;;18.88;45.12;100616.84;4992080;28;20431;-69
2023/04/23 02:00:53;;;;;;;7.28;5.93;;;;;;;18.89;45.28;100610.59;4995062;28;20034;-70
2023/04/23 02:03:18;;;;;;;7.13;5.72;;;;;;;18.86;45.17;100608.22;4976037;28;20038;-70
2023/04/23 02:05:43;;;;;;;8.07;6.03;;;;;;;18.88;45.08;100611.56;4988163;28;20089;-70
2023/04/23 02:08:09;;;;;;;7.80;6.00;;;;;;;18.89;45.26;100607.97;4999913;28;20045;-71
2023/04/23 02:10:35;;;;;;;7.20;5.60;;;;;;;18.89;45.20;100610.59;5000025;28;20038;-70
2023/04/23 02:13:01;;;;;;;7.32;5.60;;;;;;;18.88;45.24;100605.47;4994801;28;20035;-71
2023/04/23 02:15:27;;;;;;;8.98;5.70;;;;;;;18.84;45.12;100600.44;4994688;28;20068;-71
2023/04/23 02:17:52;;;;;;;7.30;5.70;;;;;;;18.85;45.19;100588.09;4997151;28;20061;-71
2023/04/23 02:20:19;;;;;;;7.00;5.53;;;;;;;18.84;45.33;100591.69;4995155;28;20026;-71
2023/04/23 02:22:45;;;;;;;8.43;5.93;;;;;;;18.87;45.23;100596.72;4972007;28;20041;-72
2023/04/23 02:25:14;;;;;;;7.15;5.95;;;;;;;18.83;45.19;100596.13;4996621;28;20049;-69
2023/04/23 02:27:40;;;;;;;8.23;6.03;;;;;;;18.83;45.23;100587.34;4988705;28;20045;-72
2023/04/23 02:30:07;;;;;;;6.78;5.32;;;;;;;18.82;45.24;100598.91;4990290;28;20039;-71
2023/04/23 02:32:32;;;;;;;7.03;5.38;;;;;;;18.82;45.21;100597.09;4996927;28;20070;-71
2023/04/23 02:34:58;;;;;;;7.50;5.47;;;;;;;18.80;45.11;100587.63;4991350;28;20069;-71
2023/04/23 02:37:23;;;;;;;6.70;5.10;;;;;;;18.80;45.05;100598.19;4997960;28;20080;-71
2023/04/23 02:39:49;;;;;;;6.90;5.00;;;;;;;18.80;45.28;100591.13;5001155;28;20462;-71
2023/04/23 02:42:14;;;;;;;11.10;6.18;;;;;;;18.75;45.27;100582.75;4996695;28;20036;-70
2023/04/23 02:44:39;;;;;;;6.57;5.00;;;;;;;18.79;45.02;100589.44;4993063;28;20077;-71
2023/04/23 02:47:05;;;;;;;6.70;5.05;;;;;;;18.79;45.08;100586.78;4987453;28;20049;-71
2023/04/23 02:49:30;;;;;;;6.90;5.28;;;;;;;18.80;45.08;100591.13;4976702;28;20038;-71
2023/04/23 02:51:55;;;;;;;8.32;5.60;;;;;;;18.79;45.26;100580.69;4983667;28;20096;-71
2023/04/23 02:54:21;;;;;;;7.47;5.45;;;;;;;18.79;45.09;100584.16;4983568;28;20034;-70
2023/04/23 02:56:46;;;;;;;6.60;5.20;;;;;;;18.74;44.93;100572.31;4983625;28;20041;-71
2023/04/23 02:59:11;;;;;;;6.78;5.13;;;;;;;18.78;45.35;100587.75;4983607;28;20518;-70
2023/04/23 03:01:37;;;;;;;7.40;5.22;;;;;;;18.80;44.99;100590.25;4987121;28;20037;-71
2023/04/23 03:04:02;;;;;;;6.70;4.90;;;;;;;18.78;45.07;100585.13;4986122;28;20101;-72
2023/04/23 03:06:28;;;;;;;7.25;5.50;;;;;;;18.77;45.02;100575.53;4965835;28;20070;-71
2023/04/23 03:08:53;;;;;;;7.13;5.38;;;;;;;18.76;45.18;100578.31;4983244;28;20118;-71
2023/04/23 03:11:19;;;;;;;6.55;5.05;;;;;;;18.77;45.12;100580.81;5001039;28;20044;-71
2023/04/23 03:13:44;;;;;;;6.30;4.70;;;;;;;18.76;45.08;100568.59;5002644;28;20030;-72
2023/04/23 03:16:10;;;;;;;6.65;5.28;;;;;;;18.77;45.19;100575.53;4974377;28;20038;-73
2023/04/23 03:18:35;;;;;;;7.07;5.05;;;;;;;18.76;45.16;100571.22;4994750;28;20030;-70
2023/04/23 03:21:00;;;;;;;6.53;5.05;;;;;;;18.76;45.11;100562.47;4997500;28;20085;-73
2023/04/23 03:23:26;;;;;;;6.50;4.80;;;;;;;18.76;45.09;100558.03;4990289;28;20026;-69
2023/04/23 03:25:51;;;;;;;7.45;5.07;;;;;;;18.77;45.05;100569.41;4995610;28;20050;-71
2023/04/23 03:28:17;;;;;;;6.55;4.82;;;;;;;18.76;45.21;100570.41;4993451;28;20030;-69
2023/04/23 03:30:42;;;;;;;6.38;4.55;;;;;;;18.75;44.95;100569.53;4990706;28;20048;-71
2023/04/23 03:33:08;;;;;;;6.68;5.05;;;;;;;18.73;44.98;100570.66;4997035;28;20040;-70
2023/04/23 03:35:33;;;;;;;6.10;4.57;;;;;;;18.72;45.08;100559.25;5002271;28;20103;-70
2023/04/23 03:37:58;;;;;;;5.67;4.37;;;;;;;18.71;44.93;100560.25;4984099;28;20130;-71
2023/04/23 03:40:24;;;;;;;5.65;4.55;;;;;;;18.70;45.03;100560.38;4982715;28;20635;-73
2023/04/23 03:42:49;;;;;;;6.03;4.63;;;;;;;18.71;45.17;100560.25;4994542;28;20088;-70
2023/04/23 03:45:15;;;;;;;5.93;4.40;;;;;;;18.72;45.09;100559.25;4990369;28;20062;-71
2023/04/23 03:47:41;;;;;;;6.95;4.82;;;;;;;18.74;45.29;100561.75;4999805;28;20470;-71
2023/04/23 03:50:08;;;;;;;6.00;4.72;;;;;;;18.73;45.28;100558.28;5001751;28;20040;-72
2023/04/23 03:52:33;;;;;;;5.97;4.45;;;;;;;18.67;45.04;100557.03;4970826;28;20034;-71
2023/04/23 03:54:59;;;;;;;6.57;4.78;;;;;;;18.73;45.16;100568.03;4997495;28;20034;-71
2023/04/23 03:57:24;;;;;;;6.88;4.43;;;;;;;18.75;45.21;100563.44;4991309;28;21198;-72
2023/04/23 03:59:49;;;;;;;5.97;4.63;;;;;;;18.72;45.22;100568.97;4987541;28;20041;-72
2023/04/23 04:02:15;;;;;;;6.45;4.18;;;;;;;18.72;45.16;100569.81;4983665;28;20423;-70
2023/04/23 04:04:41;;;;;;;5.90;4.13;;;;;;;18.71;45.06;100562.88;5001292;28;20499;-70
2023/04/23 04:07:07;;;;;;;6.78;4.32;;;;;;;18.71;45.00;100560.25;4996309;28;20125;-72
2023/04/23 04:09:32;;;;;;;6.30;4.68;;;;;;;18.73;45.21;100574.13;4990376;28;20168;-72
2023/04/23 04:11:58;;;;;;;6.13;4.25;;;;;;;18.72;45.11;100568.97;4982416;28;20034;-70
2023/04/23 04:14:23;;;;;;;6.50;4.25;;;;;;;18.67;45.11;100567.59;4991669;28;20876;-72
2023/04/23 04:16:48;;;;;;;6.05;4.22;;;;;;;18.71;45.19;100572.59;4987443;28;20116;-71
2023/04/23 04:19:14;;;;;;;5.97;4.13;;;;;;;18.68;45.28;100579.81;4986828;28;20372;-70
2023/04/23 04:21:39;;;;;;;6.38;3.90;;;;;;;18.69;45.12;100575.34;4983066;28;20532;-70
2023/04/23 04:24:05;;;;;;;5.80;4.30;;;;;;;18.71;45.31;100577.84;5001305;28;20041;-71
2023/04/23 04:26:33;;;;;;;6.47;4.40;;;;;;;18.68;45.08;100571.06;4996410;28;20038;-70
2023/04/23 04:29:00;;;;;;;5.63;4.32;;;;;;;18.67;45.04;100575.53;4982544;28;20549;-71
2023/04/23 04:31:27;;;;;;;6.43;4.35;;;;;;;18.66;45.05;100583.56;4996722;28;20026;-70
2023/04/23 04:33:54;;;;;;;5.70;4.28;;;;;;;18.68;45.09;100573.72;4994758;28;20037;-71
2023/04/23 04:36:19;;;;;;;4.85;3.70;;;;;;;18.65;45.10;100569.53;4982708;28;20037;-72
2023/04/23 04:38:45;;;;;;;5.63;4.18;;;;;;;18.67;44.87;100572.88;4993381;28;20029;-71
2023/04/23 04:41:12;;;;;;;7.05;4.45;;;;;;;18.66;45.05;100573.00;4996702;28;20081;-71
2023/04/23 04:43:37;;;;;;;5.65;4.30;;;;;;;18.63;45.23;100568.84;4981902;28;20034;-72
2023/04/23 04:46:04;;;;;;;7.05;4.63;;;;;;;18.65;44.82;100569.53;4987407;28;20060;-71
2023/04/23 04:48:29;;;;;;;5.30;3.85;;;;;;;18.63;45.04;100568.84;4998528;28;20030;-71
2023/04/23 04:50:55;;;;;;;5.72;4.30;;;;;;;18.65;45.03;100569.53;4986989;28;20042;-70
2023/04/23 04:53:21;;;;;;;5.38;4.22;;;;;;;18.63;45.03;100573.28;4994561;28;20089;-70
2023/04/23 04:55:46;;;;;;;5.55;4.13;;;;;;;18.64;44.87;100574.94;4998431;28;20037;-72
2023/04/23 04:58:11;;;;;;;5.70;4.13;;;;;;;18.62;44.89;100580.34;4998625;28;20034;-72
2023/04/23 05:00:37;;;;;;;5.35;4.00;;;;;;;18.60;44.81;100574.38;4991568;28;20038;-70
2023/04/23 05:03:02;;;;;;;5.63;4.07;;;;;;;18.62;45.05;100577.69;4992069;28;21120;-70
2023/04/23 05:05:27;;;;;;;7.03;3.95;;;;;;;18.62;44.88;100579.53;4992455;28;20034;-71
2023/04/23 05:07:53;;;;;;;5.50;3.78;;;;;;;18.62;44.83;100580.34;4998079;28;20480;-70
2023/04/23 05:10:19;;;;;;;5.47;3.67;;;;;;;18.61;44.83;100583.97;4990807;28;20034;-72
2023/04/23 05:12:45;;;;;;;5.32;3.97;;;;;;;18.60;44.98;100582.28;5001018;28;20427;-72
2023/04/23 05:15:12;;;;;;;4.90;3.80;;;;;;;18.59;44.97;100580.59;5002388;28;20447;-71
2023/04/23 05:17:41;;;;;;;4.90;3.47;;;;;;;18.59;44.90;100582.44;5001515;28;20034;-71
2023/04/23 05:20:10;;;;;;;5.30;3.22;;;;;;;18.56;45.08;100570.31;4996022;28;20537;-70
2023/04/23 05:22:40;;;;;;;6.30;3.08;;;;;;;18.59;45.00;100579.78;5007117;28;20038;-72
2023/04/23 05:25:07;;;;;;;5.00;3.10;;;;;;;18.59;45.21;100579.78;4997923;28;20806;-69
2023/04/23 05:27:33;;;;;;;4.50;3.05;;;;;;;18.62;45.28;100582.16;5000500;28;20402;-69
2023/04/23 05:30:00;;;;;;;4.70;3.05;;;;;;;18.63;45.28;100582.03;4980460;28;20030;-72
2023/04/23 05:32:26;;;;;;;5.10;3.15;;;;;;;18.68;45.25;100578.97;4992336;28;20042;-71
2023/04/23 05:34:51;;;;;;;5.65;3.17;;;;;;;18.70;45.21;100581.50;4984024;28;20030;-70
2023/04/23 05:37:16;;;;;;;5.78;3.03;;;;;;;18.72;45.37;100584.81;4998907;28;20042;-71
2023/04/23 05:39:41;;;;;;;6.82;2.90;;;;;;;18.75;45.23;100585.38;4994305;28;20037;-73
2023/04/23 05:42:07;;;;;;;4.70;3.00;;;;;;;18.77;45.02;100582.59;4997833;28;20419;-71
2023/04/23 05:44:32;;;;;;;5.43;2.90;;;;;;;18.78;45.40;100576.38;5004715;28;20302;-71
2023/04/23 05:46:57;;;;;;;5.40;2.70;;;;;;;18.81;45.40;100576.09;4996442;28;20272;-70
2023/04/23 05:49:23;;;;;;;4.30;2.88;;;;;;;18.85;45.14;100583.66;4987948;28;20268;-73
2023/04/23 05:51:48;;;;;;;4.20;2.40;;;;;;;18.89;45.40;100578.09;4991526;28;20521;-69
2023/04/23 05:54:14;;;;;;;4.50;2.47;;;;;;;18.90;45.29;100577.97;4995733;28;20292;-71
2023/04/23 05:56:39;;;;;;;5.78;2.83;;;;;;;18.91;45.19;100571.69;4979367;28;20459;-71
2023/04/23 05:59:05;;;;;;;4.23;2.60;;;;;;;18.95;45.17;100578.38;4988895;28;20034;-71
2023/04/23 06:01:30;;;;;;;4.20;2.75;;;;;;;18.97;45.08;100578.25;4976382;28;20271;-72
2023/04/23 06:03:56;;;;;;;4.47;2.75;;;;;;;18.98;45.08;100578.09;4992577;28;20732;-71
2023/04/23 06:06:21;;;;;;;4.28;2.58;;;;;;;19.00;45.12;100583.25;4989158;28;20031;-70
2023/04/23 06:08:46;;;;;;;4.85;2.65;;;;;;;18.99;45.04;100573.66;4986783;28;20042;-71
2023/04/23 06:11:12;;;;;;;4.35;2.90;;;;;;;19.01;44.98;100569.91;5000595;28;20168;-72
2023/04/23 06:13:39;;;;;;;4.25;2.67;;;;;;;19.02;45.00;100571.56;4981789;28;20030;-71
2023/04/23 06:16:07;;;;;;;4.35;2.75;;;;;;;19.05;45.05;100567.00;4990285;28;20042;-71
2023/04/23 06:18:32;;;;;;;4.13;2.58;;;;;;;19.05;44.97;100565.19;4987096;28;20065;-71
2023/04/23 06:21:01;;;;;;;4.18;2.55;;;;;;;19.06;44.99;100566.00;5003308;28;20058;-71
2023/04/23 06:23:26;;;;;;;5.50;2.60;;;;;;;19.08;44.81;100553.53;5001008;28;20038;-70
2023/04/23 06:25:51;;;;;;;4.37;2.67;;;;;;;19.06;44.86;100550.16;4966963;28;20054;-71
2023/04/23 06:28:16;;;;;;;3.80;2.50;;;;;;;19.08;44.98;100549.06;4984239;28;20363;-71
2023/04/23 06:30:42;;;;;;;3.67;2.40;;;;;;;19.09;45.07;100544.59;4988313;28;20030;-70
2023/04/23 06:33:08;;;;;;;3.55;2.25;;;;;;;19.09;45.10;100542.81;5003134;28;20038;-70
2023/04/23 06:35:33;;;;;;;3.95;2.30;;;;;;;19.08;44.88;100546.41;4994996;28;20157;-71
2023/04/23 06:37:58;;;;;;;4.35;2.58;;;;;;;19.09;45.00;100536.69;4997443;28;20041;-71
2023/04/23 06:40:24;;;;;;;3.93;2.47;;;;;;;19.09;45.14;100537.53;4978686;28;20038;-70
2023/04/23 06:42:49;;;;;;;4.55;2.60;;;;;;;19.03;44.92;100533.63;4984094;28;20283;-70
2023/04/23 06:45:15;;;;;;;4.55;2.50;;;;;;;19.06;44.84;100539.59;4973627;28;20037;-71
2023/04/23 06:47:40;;;;;;;4.70;2.33;;;;;;;19.10;44.82;100546.28;5002854;28;20030;-69
2023/04/23 06:50:07;;;;;;;3.72;2.20;;;;;;;19.09;45.05;100537.53;5000672;28;20044;-70
2023/04/23 06:52:32;;;;;;;4.03;2.40;;;;;;;19.10;45.13;100539.19;5003196;28;20029;-71
2023/04/23 06:54:58;;;;;;;4.53;2.55;;;;;;;19.08;45.10;100527.94;4998591;28;20062;-70
2023/04/23 06:57:23;;;;;;;4.28;2.40;;;;;;;19.13;45.16;100540.72;4984008;28;20515;-70
2023/04/23 06:59:48;;;;;;;3.75;2.10;;;;;;;19.13;44.98;100535.44;4995453;28;20029;-70
2023/04/23 07:02:13;;;;;;;4.07;2.38;;;;;;;19.13;45.16;100533.63;4992927;28;20030;-71
2023/04/23 07:04:39;;;;;;;4.40;2.60;;;;;;;19.14;45.29;100532.66;4987972;28;20087;-70
2023/04/23 07:07:05;;;;;;;4.90;2.40;;;;;;;19.13;45.57;100528.34;4995965;28;20270;-71
2023/04/23 07:09:30;;;;;;;3.92;2.40;;;;;;;19.18;45.81;100538.50;4987452;28;20026;-72
2023/04/23 07:11:56;;;;;;;4.97;2.67;;;;;;;19.16;45.89;100530.72;4988318;28;20042;-70
2023/04/23 07:14:21;;;;;;;4.88;2.28;;;;;;;19.17;46.23;100527.09;4991563;28;20038;-73
2023/04/23 07:16:46;;;;;;;5.72;2.50;;;;;;;19.21;46.27;100530.28;4969058;28;20038;-70
2023/04/23 07:19:12;;;;;;;6.68;2.45;;;;;;;19.21;46.52;100530.28;4984294;28;20042;-70
2023/04/23 07:21:37;;;;;;;4.22;2.50;;;;;;;19.23;46.46;100533.63;4993846;28;20042;-70
2023/04/23 07:24:05;;;;;;;4.03;2.13;;;;;;;19.23;46.57;100530.16;4994222;28;20403;-70
2023/04/23 07:26:32;;;;;;;6.18;2.58;;;;;;;19.23;46.80;100520.41;4995344;28;20290;-70
2023/04/23 07:28:57;;;;;;;5.20;2.53;;;;;;;19.26;46.57;100524.59;4996916;28;20093;-69
2023/04/23 07:31:22;;;;;;;4.97;2.53;;;;;;;19.25;46.64;100522.91;4993759;28;20038;-69
2023/04/23 07:33:48;;;;;;;3.92;2.20;;;;;;;19.26;46.86;100529.88;4964915;28;20118;-68
2023/04/23 07:36:13;;;;;;;4.22;2.25;;;;;;;19.27;46.77;100523.63;4992400;28;20100;-72
2023/04/23 07:38:39;;;;;;;6.70;2.40;;;;;;;19.29;46.87;100524.31;4992623;28;20117;-69
2023/04/23 07:41:04;;;;;;;5.05;2.33;;;;;;;19.31;46.73;100519.72;4985100;28;20026;-69
2023/04/23 07:43:30;;;;;;;6.63;2.30;;;;;;;19.39;46.70;100522.50;4992295;28;20109;-68
2023/04/23 07:45:55;;;;;;;5.88;2.40;;;;;;;19.36;47.29;100517.50;4987982;28;20039;-68
2023/04/23 07:48:20;;;;;;;5.07;2.10;;;;;;;19.34;47.18;100520.28;4988138;28;20531;-69
2023/04/23 07:50:45;;;;;;;5.82;2.50;;;;;;;19.34;47.39;100515.00;4984786;28;20041;-69
2023/04/23 07:53:11;;;;;;;4.72;2.17;;;;;;;19.35;47.42;100518.47;4994372;28;20034;-69
2023/04/23 07:55:36;;;;;;;4.75;2.08;;;;;;;19.37;47.81;100513.88;4966779;28;20038;-69
2023/04/23 07:58:01;;;;;;;5.03;2.40;;;;;;;19.37;47.19;100513.88;4982650;28;20443;-70
2023/04/23 08:00:27;;;;;;;6.53;2.43;;;;;;;19.35;47.41;100506.09;4995793;28;20117;-68
2023/04/23 08:02:52;;;;;;;7.13;2.33;;;;;;;19.34;47.22;100512.38;4973317;28;20276;-68
2023/04/23 08:05:17;;;;;;;5.03;2.17;;;;;;;19.32;47.28;100506.38;4982586;28;20042;-69
2023/04/23 08:07:43;;;;;;;6.07;2.42;;;;;;;19.33;47.53;100501.94;4989003;28;20503;-68
2023/04/23 08:10:08;;;;;;;5.82;2.10;;;;;;;19.33;47.40;100494.84;5000605;28;20036;-69
2023/04/23 08:12:34;;;;;;;5.03;2.10;;;;;;;19.34;47.41;100499.16;4992066;28;20607;-68
2023/04/23 08:15:00;;;;;;;4.75;2.10;;;;;;;19.36;47.29;100499.03;4988348;28;20523;-68
2023/04/23 08:17:25;;;;;;;7.95;2.45;;;;;;;19.46;47.15;100496.34;4992617;28;20069;-68
2023/04/23 08:19:51;;;;;;;4.60;2.10;;;;;;;19.49;47.12;100494.25;4998872;28;20027;-70
2023/04/23 08:22:16;;;;;;;4.88;2.10;;;;;;;19.54;46.97;100489.38;4999174;28;20434;-69
2023/04/23 08:24:43;;;;;;;4.70;2.10;;;;;;;19.56;47.28;100484.78;4999167;28;20058;-68
2023/04/23 08:27:08;;;;;;;5.88;2.28;;;;;;;19.54;47.13;100480.63;4986662;28;20490;-69
2023/04/23 08:29:34;;;;;;;6.30;2.22;;;;;;;19.53;47.07;100478.94;4991225;28;20038;-70
2023/04/23 08:31:59;;;;;;;6.53;2.05;;;;;;;19.55;47.34;100484.91;4985138;28;20390;-69
2023/04/23 08:34:25;;;;;;;5.10;2.00;;;;;;;19.52;47.18;100483.41;5000483;28;20033;-68
2023/04/23 08:36:50;;;;;;;5.28;2.13;;;;;;;19.50;47.32;100481.88;4984421;28;20037;-69
2023/04/23 08:39:15;;;;;;;6.43;2.30;;;;;;;19.52;47.21;100490.50;4988245;28;20033;-68
2023/04/23 08:41:42;;;;;;;4.93;2.13;;;;;;;19.46;47.35;100485.78;4999074;28;20033;-67
2023/04/23 08:44:16;;;;;;;5.18;1.98;;;;;;;19.42;47.42;100479.94;4998661;28;20056;-68
2023/04/23 08:46:43;;;;;;;3.85;1.83;;;;;;;19.43;47.48;100478.97;4988770;28;20040;-68
2023/04/23 08:49:12;;;;;;;5.97;2.33;;;;;;;19.39;47.43;100470.50;4990106;28;20068;-69
2023/04/23 08:51:42;;;;;;;5.40;2.08;;;;;;;19.51;47.36;100476.44;4991210;28;20042;-68
2023/04/23 08:54:13;;;;;;;4.93;2.00;;;;;;;19.51;47.39;100481.72;4970273;28;20486;-69
2023/04/23 08:56:40;;;;;;;5.53;2.00;;;;;;;19.50;47.36;100479.22;4987106;28;20038;-69
2023/04/23 08:59:06;;;;;;;5.32;2.03;;;;;;;19.50;47.23;100476.59;4986012;28;20029;-70
2023/04/23 09:01:32;;;;;;;6.90;2.55;;;;;;;19.49;47.32;100485.50;4989513;28;20041;-70
2023/04/23 09:03:59;;;;;;;4.45;2.13;;;;;;;19.54;47.47;100485.91;4990446;28;20038;-70
2023/04/23 09:06:25;;;;;;;4.35;1.75;;;;;;;19.63;47.20;100487.69;4988205;28;20034;-69
2023/04/23 09:08:51;;;;;;;6.28;2.05;;;;;;;19.65;46.95;100475.16;4989303;28;20781;-68
2023/04/23 09:11:18;;;;;;;5.72;1.90;;;;;;;19.69;46.83;100481.00;4996581;28;20042;-70
2023/04/23 09:13:44;;;;;;;4.93;1.90;;;;;;;19.66;46.92;100474.19;4998254;28;20788;-67
2023/04/23 09:16:09;;;;;;;4.72;1.95;;;;;;;19.68;46.68;100479.34;4993549;28;20129;-69
2023/04/23 09:18:35;;;;;;;4.60;2.00;;;;;;;19.70;46.77;100480.03;5000666;28;20122;-68
2023/04/23 09:21:03;;;;;;;5.47;2.10;;;;;;;19.66;46.80;100468.06;4993460;28;20387;-72
2023/04/23 09:23:30;;;;;;;6.13;2.08;;;;;;;19.65;46.78;100469.06;4981408;28;20037;-67
2023/04/23 09:25:56;;;;;;;6.85;1.85;;;;;;;19.61;46.74;100463.19;4995826;28;20078;-68
2023/04/23 09:28:33;;;;;;;4.60;1.98;;;;;;;19.60;46.65;100465.97;5000995;28;20112;-70
2023/04/23 09:30:59;;;;;;;6.18;1.85;;;;;;;19.59;46.91;100462.50;4986655;28;20040;-71
2023/04/23 09:33:26;;;;;;;4.60;1.70;;;;;;;19.59;46.86;100462.50;5000848;28;20037;-69
2023/04/23 09:35:52;;;;;;;6.10;2.03;;;;;;;19.56;46.72;100455.69;4990282;28;20041;-71
2023/04/23 09:38:19;;;;;;;4.60;1.90;;;;;;;19.54;46.94;100456.84;4991800;28;20029;-71
2023/04/23 09:40:44;;;;;;;4.00;1.92;;;;;;;19.52;46.63;100454.34;4985130;28;20543;-68
2023/04/23 09:43:10;;;;;;;5.72;1.70;;;;;;;19.53;46.59;100453.34;4984744;28;20612;-69
2023/04/23 09:45:35;;;;;;;4.22;1.77;;;;;;;19.49;46.76;100456.44;4984808;28;20463;-67
2023/04/23 09:48:01;;;;;;;8.68;2.08;;;;;;;19.49;46.45;100448.50;4988560;28;20084;-70
2023/04/23 09:50:39;;;;;;;4.38;1.70;;;;;;;19.43;46.86;100444.59;5004304;28;20030;-69
2023/04/23 09:53:07;;;;;;;6.38;1.95;;;;;;;19.42;46.99;100450.03;4993603;28;20217;-70
2023/04/23 09:55:36;;;;;;;4.38;1.50;;;;;;;19.43;46.96;100457.81;4984979;28;20030;-69
2023/04/23 09:58:03;;;;;;;4.93;1.67;;;;;;;19.45;46.81;100458.50;4995371;28;20030;-69
2023/04/23 10:00:35;;;;;;;5.18;1.85;;;;;;;19.42;46.92;100450.03;4976657;28;20044;-68
2023/04/23 10:03:00;;;;;;;7.30;1.67;;;;;;;19.44;46.59;100454.22;4994931;28;20038;-68
2023/04/23 10:05:26;;;;;;;5.63;1.65;;;;;;;19.42;46.86;100435.00;5003921;28;20469;-72
2023/04/23 10:07:52;;;;;;;6.93;1.77;;;;;;;19.41;46.81;100449.22;4996543;28;20034;-68
2023/04/23 10:10:18;;;;;;;4.47;1.50;;;;;;;19.41;46.60;100441.28;4985056;28;20121;-70
2023/04/23 10:12:45;;;;;;;5.15;1.77;;;;;;;19.40;46.48;100451.00;4995441;28;20169;-70
2023/04/23 10:15:11;;;;;;;4.47;2.10;;;;;;;19.39;46.78;100433.50;4977949;28;20030;-68
2023/04/23 10:17:38;;;;;;;3.22;1.35;;;;;;;19.40;46.63;100437.78;4997455;28;20066;-71
2023/04/23 10:20:05;;;;;;;4.82;1.30;;;;;;;19.34;46.68;100424.31;5004002;28;20608;-68
2023/04/23 10:22:33;;;;;;;6.95;1.90;;;;;;;19.39;46.70;100436.16;4984301;28;20041;-68
2023/04/23 10:25:02;;;;;;;4.20;1.77;;;;;;;19.37;46.75;100432.78;4995955;28;20046;-68
2023/04/23 10:27:29;;;;;;;4.40;1.70;;;;;;;19.37;46.57;100437.25;4985235;28;20213;-67
2023/04/23 10:29:56;;;;;;;5.00;1.40;;;;;;;19.45;46.70;100432.06;4990621;28;20034;-67
2023/04/23 10:32:23;;;;;;;5.25;1.60;;;;;;;19.47;46.60;100416.94;4993844;28;20414;-67
2023/04/23 10:34:49;;;;;;;6.53;1.75;;;;;;;19.53;46.58;100421.63;4984746;28;20030;-68
2023/04/23 10:37:18;;;;;;;3.88;1.48;;;;;;;19.54;46.47;100430.41;4994468;28;20030;-68
2023/04/23 10:39:44;;;;;;;4.40;1.45;;;;;;;19.50;46.54;100423.72;4989577;28;20069;-69
2023/04/23 10:42:12;;;;;;;5.85;1.85;;;;;;;19.44;46.73;100422.50;4996654;28;20452;-70
2023/04/23 10:44:41;;;;;;;4.78;1.40;;;;;;;19.46;46.98;100422.38;4986774;28;20038;-69
2023/04/23 10:47:12;;;;;;;5.05;1.52;;;;;;;19.45;47.20;100415.41;4994061;28;20034;-69
2023/04/23 10:49:37;;;;;;;6.55;1.75;;;;;;;19.47;47.35;100408.16;4996798;28;20034;-70
2023/04/23 10:52:13;;;;;;;7.65;1.45;;;;;;;19.46;47.32;100411.78;5003201;28;20034;-70
2023/04/23 10:54:40;;;;;;;5.35;1.40;;;;;;;19.48;47.55;100405.38;4983695;28;20131;-69
2023/04/23 10:57:06;;;;;;;5.38;1.42;;;;;;;19.45;47.81;100386.34;4990613;28;20390;-69
2023/04/23 10:59:39;;;;;;;4.60;1.52;;;;;;;19.43;47.71;100388.28;4979573;28;20036;-69
2023/04/23 11:02:10;;;;;;;7.40;1.60;;;;;;;19.45;48.02;100383.69;4983935;28;20034;-67
2023/04/23 11:04:40;;;;;;;4.20;1.80;;;;;;;19.46;48.07;100393.28;4995189;28;20033;-68
2023/04/23 11:07:10;;;;;;;6.18;1.80;;;;;;;19.45;48.02;100389.78;5001281;28;20026;-68
2023/04/23 11:09:41;;;;;;;4.63;1.65;;;;;;;19.43;48.27;100383.84;4992022;28;20038;-67
2023/04/23 11:12:30;;;;;;;4.38;1.42;;;;;;;19.42;47.99;100381.34;4996804;28;20253;-68
2023/04/23 11:15:00;;;;;;;6.05;1.70;;;;;;;19.39;47.85;100372.72;4983971;28;20506;-70
2023/04/23 11:17:47;;;;;;;4.25;1.48;;;;;;;19.41;47.86;100377.88;4986054;28;20034;-70
2023/04/23 11:20:14;;;;;;;4.30;1.27;;;;;;;19.42;47.78;100373.41;4968413;28;20041;-69